Time;durP1;ratioP1;P1;durP2;ratioP2;P2;SDS_P1;SDS_P2;PMS_P1;PMS_P2;Temp;Humidity;BMP_temperature;BMP_pressure;BME280_temperature;BME280_humidity;BME280_pressure;Samples;Min_cycle;Max_cycle;Signal;HPM_P1;HPM_P2
2023/03/02 00:00:22;;;;;;;19.10;7.90;;;;;;;-1.02;100.00;101351.48;106550;1254;61396;-81
2023/03/02 00:03:12;;;;;;;12.80;6.30;;;;;;;-1.02;100.00;101352.84;106654;1252;73896;-81
2023/03/02 00:06:01;;;;;;;17.70;7.30;;;;;;;-1.10;100.00;101345.86;106435;1253;69918;-91
2023/03/02 00:08:51;;;;;;;14.50;5.80;;;;;;;-1.18;100.00;101343.18;106501;1257;71547;-81
2023/03/02 00:11:40;;;;;;;20.70;7.00;;;;;;;-1.23;100.00;101340.37;106303;1257;60444;-81
2023/03/02 00:14:31;;;;;;;11.60;5.70;;;;;;;-1.27;100.00;101335.48;106563;1256;61361;-81
2023/03/02 00:17:26;;;;;;;15.20;6.10;;;;;;;-1.28;100.00;101332.11;106592;1257;74315;-81
2023/03/02 00:20:17;;;;;;;15.50;6.70;;;;;;;-1.32;100.00;101325.86;106570;1253;68973;-90
2023/03/02 00:23:06;;;;;;;16.20;7.40;;;;;;;-1.34;100.00;101326.61;106500;1253;72581;-81
2023/03/02 00:25:57;;;;;;;17.90;6.80;;;;;;;-1.30;100.00;101326.85;106410;1254;60535;-82
2023/03/02 00:28:46;;;;;;;17.40;6.60;;;;;;;-1.28;100.00;101317.79;106680;1254;61307;-81
2023/03/02 00:31:36;;;;;;;17.10;8.20;;;;;;;-1.25;100.00;101318.42;106524;1253;73166;-82
2023/03/02 00:34:26;;;;;;;19.80;7.40;;;;;;;-1.19;100.00;101315.29;106487;1254;68331;-81
2023/03/02 00:37:15;;;;;;;13.10;6.50;;;;;;;-1.17;100.00;101314.14;106447;1254;74072;-81
2023/03/02 00:40:06;;;;;;;14.40;7.00;;;;;;;-1.06;100.00;101322.98;106589;1253;61835;-81
2023/03/02 00:42:55;;;;;;;19.10;6.60;;;;;;;-0.97;100.00;101321.06;106499;1253;60436;-90
2023/03/02 00:45:44;;;;;;;16.30;7.00;;;;;;;-0.93;100.00;101322.45;106765;1252;74303;-90
2023/03/02 00:48:33;;;;;;;14.80;6.40;;;;;;;-0.88;100.00;101317.29;106438;1253;67303;-81
2023/03/02 00:51:25;;;;;;;17.50;7.10;;;;;;;-0.81;100.00;101313.14;106515;1253;74627;-90
2023/03/02 00:54:14;;;;;;;16.50;6.70;;;;;;;-0.72;100.00;101316.99;106584;1253;60319;-90
2023/03/02 00:57:03;;;;;;;16.40;6.60;;;;;;;-0.64;100.00;101323.02;106407;1253;60632;-90
2023/03/02 00:59:53;;;;;;;16.40;6.30;;;;;;;-0.55;100.00;101320.54;106543;1251;74439;-81
2023/03/02 01:02:45;;;;;;;12.40;5.80;;;;;;;-0.37;100.00;101321.70;106544;1252;67903;-87
2023/03/02 01:05:36;;;;;;;9.80;5.70;;;;;;;-0.25;100.00;101317.64;106581;1251;72814;-90
2023/03/02 01:08:26;;;;;;;19.60;6.50;;;;;;;-0.17;100.00;101313.70;106380;1251;217756;-89
2023/03/02 01:11:17;;;;;;;12.20;5.50;;;;;;;-0.11;100.00;101316.41;106499;1251;60618;-81
2023/03/02 01:14:06;;;;;;;11.50;5.00;;;;;;;-0.01;100.00;101309.27;106554;1253;75004;-90
2023/03/02 01:16:55;;;;;;;15.50;5.20;;;;;;;0.07;100.00;101301.34;106413;1256;67701;-81
2023/03/02 01:19:45;;;;;;;12.00;4.90;;;;;;;0.13;100.00;101303.84;106637;1256;70545;-81
2023/03/02 01:22:34;;;;;;;9.50;5.10;;;;;;;0.07;100.00;101304.59;106509;1252;60527;-82
2023/03/02 01:25:24;;;;;;;13.60;5.70;;;;;;;0.03;100.00;101303.64;106440;1252;60802;-90
2023/03/02 01:28:13;;;;;;;12.50;5.30;;;;;;;-0.00;100.00;101307.77;106539;1252;74870;-81
2023/03/02 01:31:03;;;;;;;13.20;4.90;;;;;;;0.01;100.00;101304.81;106508;1251;69024;-81
2023/03/02 01:33:52;;;;;;;11.10;4.70;;;;;;;-0.03;100.00;101304.32;106497;1256;73425;-81
2023/03/02 01:36:45;;;;;;;9.80;4.80;;;;;;;-0.02;100.00;101301.52;106822;1251;62489;-81
2023/03/02 01:39:34;;;;;;;12.70;4.90;;;;;;;-0.01;100.00;101303.68;106539;1251;61502;-84
2023/03/02 01:42:32;;;;;;;8.80;3.50;;;;;;;0.03;100.00;101300.45;106512;1253;74017;-90
2023/03/02 01:45:52;;;;;;;11.40;4.80;;;;;;;0.07;100.00;101298.19;106442;1251;69747;-89
2023/03/02 01:49:06;;;;;;;10.00;4.50;;;;;;;0.07;100.00;101301.83;106534;1251;73703;-90
2023/03/02 01:52:12;;;;;;;13.10;4.70;;;;;;;0.07;100.00;101299.39;106508;1251;60425;-90
2023/03/02 01:55:03;;;;;;;14.50;4.70;;;;;;;0.07;100.00;101297.70;106404;1253;60412;-81
2023/03/02 01:57:53;;;;;;;11.90;4.40;;;;;;;0.07;100.00;101300.42;106493;1251;72180;-81
2023/03/02 02:00:42;;;;;;;12.10;5.10;;;;;;;0.02;100.00;101302.82;106491;1251;69105;-90
2023/03/02 02:03:31;;;;;;;12.80;4.90;;;;;;;-0.01;100.00;101299.27;106619;1253;70812;-89
2023/03/02 02:06:24;;;;;;;13.30;4.60;;;;;;;-0.11;100.00;101300.45;106536;1255;61583;-90
2023/03/02 02:09:14;;;;;;;;;;;;;;;-0.22;100.00;101297.36;106612;1250;60481;-90
2023/03/02 02:12:12;;;;;;;7.70;3.80;;;;;;;-0.28;100.00;101292.48;106561;1251;74172;-90
2023/03/02 02:15:01;;;;;;;10.60;4.80;;;;;;;-0.35;100.00;101298.02;106637;1251;67073;-81
2023/03/02 02:17:53;;;;;;;9.60;4.20;;;;;;;-0.37;100.00;101295.21;106575;1253;71175;-81
2023/03/02 02:20:46;;;;;;;8.20;4.40;;;;;;;-0.44;100.00;101287.52;106587;1251;61476;-81
2023/03/02 02:23:58;;;;;;;10.70;4.60;;;;;;;-0.50;100.00;101287.98;106624;1251;61401;-81
2023/03/02 02:26:49;;;;;;;9.50;4.20;;;;;;;-0.53;100.00;101287.82;106603;1251;75030;-81
2023/03/02 02:29:45;;;;;;;9.40;4.30;;;;;;;-0.48;100.00;101282.77;106644;1251;69774;-81
2023/03/02 02:32:35;;;;;;;7.30;4.00;;;;;;;-0.53;100.00;101285.64;106704;1251;73856;-91
2023/03/02 02:35:26;;;;;;;10.60;4.60;;;;;;;-0.53;100.00;101286.05;106582;1251;60880;-90
2023/03/02 02:38:17;;;;;;;10.00;4.30;;;;;;;-0.51;100.00;101283.67;106457;1251;61551;-90
2023/03/02 02:41:07;;;;;;;8.00;3.80;;;;;;;-0.53;100.00;101287.48;106781;1251;75187;-81
2023/03/02 02:43:57;;;;;;;10.70;4.50;;;;;;;-0.55;100.00;101289.39;106503;1253;69080;-90
2023/03/02 02:46:48;;;;;;;9.50;4.60;;;;;;;-0.53;100.00;101289.34;106411;1256;72547;-90
2023/03/02 02:49:40;;;;;;;9.40;4.40;;;;;;;-0.57;100.00;101288.88;106516;1251;60507;-82
2023/03/02 02:52:30;;;;;;;11.10;5.00;;;;;;;-0.57;100.00;101290.37;106283;1251;60357;-91
2023/03/02 02:55:22;;;;;;;11.60;5.20;;;;;;;-0.56;100.00;101289.47;106492;1251;72067;-82
2023/03/02 02:58:27;;;;;;;9.30;4.30;;;;;;;-0.57;100.00;101287.47;106552;1255;68171;-91
2023/03/02 03:01:18;;;;;;;11.10;3.90;;;;;;;-0.61;100.00;101287.95;106531;1251;72935;-82
2023/03/02 03:04:09;;;;;;;13.60;4.50;;;;;;;-0.62;100.00;101286.46;106373;1255;63645;-90
2023/03/02 03:07:01;;;;;;;11.50;5.00;;;;;;;-0.70;100.00;101290.06;106375;1251;60650;-82
2023/03/02 03:10:33;;;;;;;9.40;4.10;;;;;;;-0.70;100.00;101295.83;106740;1252;73849;-82
2023/03/02 03:13:24;;;;;;;13.00;5.70;;;;;;;-0.73;100.00;101297.61;106396;1256;68997;-90
2023/03/02 03:16:15;;;;;;;10.30;4.70;;;;;;;-0.70;100.00;101299.09;106463;1251;73073;-91
2023/03/02 03:19:17;;;;;;;14.80;5.50;;;;;;;-0.66;100.00;101298.34;106573;1256;60511;-91
2023/03/02 03:22:07;;;;;;;13.20;4.50;;;;;;;-0.59;100.00;101298.10;106420;1257;60432;-91
2023/03/02 03:24:57;;;;;;;13.60;5.70;;;;;;;-0.56;100.00;101296.12;106401;1256;74808;-81
2023/03/02 03:27:47;;;;;;;15.20;5.90;;;;;;;-0.52;100.00;101300.10;106552;1251;67906;-91
2023/03/02 03:30:37;;;;;;;13.50;4.90;;;;;;;-0.49;100.00;101300.93;106515;1251;72884;-82
2023/03/02 03:33:29;;;;;;;14.20;5.10;;;;;;;-0.40;100.00;101295.09;106404;1251;62324;-82
2023/03/02 03:36:18;;;;;;;10.40;4.60;;;;;;;-0.40;100.00;101295.86;106405;1254;60374;-90
2023/03/02 03:39:08;;;;;;;11.70;5.10;;;;;;;-0.39;100.00;101292.42;106584;1251;74911;-81
2023/03/02 03:41:58;;;;;;;13.50;5.50;;;;;;;-0.43;100.00;101288.81;106405;1257;67540;-91
2023/03/02 03:44:47;;;;;;;15.80;5.70;;;;;;;-0.39;100.00;101289.55;106612;1251;73077;-82
2023/03/02 03:47:37;;;;;;;12.30;5.30;;;;;;;-0.40;100.00;101291.00;106546;1251;60430;-91
2023/03/02 03:50:26;;;;;;;9.80;4.50;;;;;;;-0.36;100.00;101289.27;106439;1251;60345;-82
2023/03/02 03:53:16;;;;;;;12.00;5.20;;;;;;;-0.28;100.00;101287.45;106471;1253;74729;-90
2023/03/02 03:56:06;;;;;;;15.40;5.50;;;;;;;-0.28;100.00;101284.79;106496;1254;69928;-82
2023/03/02 03:59:05;;;;;;;10.00;5.00;;;;;;;-0.24;100.00;101282.23;106287;1254;73882;-81
2023/03/02 04:02:02;;;;;;;13.20;5.10;;;;;;;-0.29;100.00;101283.00;106601;1251;60819;-89
2023/03/02 04:05:05;;;;;;;9.40;5.20;;;;;;;-0.30;100.00;101280.39;107007;1251;60482;-90
2023/03/02 04:07:54;;;;;;;16.90;6.30;;;;;;;-0.27;100.00;101276.42;106387;1253;74085;-90
2023/03/02 04:10:44;;;;;;;11.50;5.30;;;;;;;-0.20;100.00;101280.67;106415;1257;69719;-81
2023/03/02 04:13:33;;;;;;;10.90;5.60;;;;;;;-0.14;100.00;101282.70;106199;1254;73787;-82
2023/03/02 04:16:22;;;;;;;13.10;5.40;;;;;;;-0.13;100.00;101279.77;106406;1252;61727;-82
2023/03/02 04:19:16;;;;;;;11.20;4.60;;;;;;;-0.11;100.00;101282.44;106428;1256;60471;-81
2023/03/02 04:22:07;;;;;;;10.50;5.10;;;;;;;-0.08;100.00;101280.41;106642;1254;74485;-81
2023/03/02 04:25:00;;;;;;;15.20;5.80;;;;;;;-0.08;100.00;101283.87;106464;1253;68612;-91
2023/03/02 04:27:50;;;;;;;16.70;6.10;;;;;;;-0.05;100.00;101288.59;106522;1256;72963;-91
2023/03/02 04:30:43;;;;;;;15.50;6.00;;;;;;;-0.04;100.00;101291.66;106351;1253;62488;-89
2023/03/02 04:33:34;;;;;;;16.30;5.90;;;;;;;0.01;100.00;101291.80;106468;1254;60534;-90
2023/03/02 04:36:25;;;;;;;12.20;5.00;;;;;;;0.05;100.00;101285.77;106447;1254;71656;-90
2023/03/02 04:39:15;;;;;;;9.10;4.90;;;;;;;0.05;100.00;101290.34;106399;1255;66703;-91
2023/03/02 04:42:09;;;;;;;11.60;5.20;;;;;;;0.08;100.00;101289.52;106515;1254;70217;-81
2023/03/02 04:44:58;;;;;;;16.80;7.30;;;;;;;0.11;100.00;101293.27;106590;1254;60451;-89
2023/03/02 04:47:53;;;;;;;12.00;5.20;;;;;;;0.15;100.00;101295.88;106516;1254;60585;-90
2023/03/02 04:50:43;;;;;;;12.90;6.00;;;;;;;0.18;100.00;101297.61;106533;1253;74218;-91
2023/03/02 04:53:32;;;;;;;16.20;5.30;;;;;;;0.20;100.00;101296.68;106500;1251;68626;-92
2023/03/02 04:56:21;;;;;;;11.10;4.90;;;;;;;0.24;100.00;101301.69;106507;1253;72006;-82
2023/03/02 04:59:10;;;;;;;13.50;5.40;;;;;;;0.28;100.00;101299.33;106582;1251;61712;-82
2023/03/02 05:02:01;;;;;;;10.50;4.80;;;;;;;0.31;100.00;101298.50;106381;1255;60360;-81
2023/03/02 05:04:50;;;;;;;8.20;4.50;;;;;;;0.37;100.00;101299.21;106529;1255;74409;-82
2023/03/02 05:07:39;;;;;;;13.90;5.40;;;;;;;0.40;100.00;101299.70;106378;1253;69148;-91
2023/03/02 05:10:31;;;;;;;14.50;5.90;;;;;;;0.48;100.00;101299.45;106510;1251;72558;-91
2023/03/02 05:13:20;;;;;;;12.80;5.70;;;;;;;0.53;100.00;101298.17;106460;1256;60387;-82
2023/03/02 05:16:09;;;;;;;10.40;4.90;;;;;;;0.58;100.00;101298.00;106657;1251;61198;-82
2023/03/02 05:18:59;;;;;;;13.10;5.50;;;;;;;0.68;100.00;101301.08;106298;1253;74942;-82
2023/03/02 05:21:48;;;;;;;13.20;5.30;;;;;;;0.74;100.00;101299.37;106570;1256;69242;-82
2023/03/02 05:24:38;;;;;;;10.20;5.70;;;;;;;0.85;100.00;101301.56;106502;1251;73958;-82
2023/03/02 05:27:27;;;;;;;10.20;4.40;;;;;;;0.99;100.00;101304.00;106457;1251;60505;-90
2023/03/02 05:30:16;;;;;;;8.80;4.40;;;;;;;1.04;100.00;101304.77;106627;1254;60507;-92
2023/03/02 05:33:05;;;;;;;7.90;4.10;;;;;;;1.09;100.00;101302.50;106589;1251;74244;-91
2023/03/02 05:35:57;;;;;;;10.60;4.60;;;;;;;1.16;100.00;101299.14;106516;1251;70676;-82
2023/03/02 05:38:46;;;;;;;11.30;5.60;;;;;;;1.26;100.00;101299.83;106485;1256;73274;-82
2023/03/02 05:41:37;;;;;;;11.50;4.60;;;;;;;1.30;100.00;101301.55;106475;1252;61360;-83
2023/03/02 05:44:26;;;;;;;14.50;5.90;;;;;;;1.36;100.00;101296.92;106554;1251;61873;-82
2023/03/02 05:47:15;;;;;;;13.70;5.70;;;;;;;1.42;100.00;101295.55;106824;1257;74124;-91
2023/03/02 05:50:05;;;;;;;14.60;4.40;;;;;;;1.45;100.00;101298.06;106351;1253;69047;-83
2023/03/02 05:52:55;;;;;;;9.10;4.60;;;;;;;1.57;100.00;101294.67;106519;1253;73801;-89
2023/03/02 05:55:45;;;;;;;13.90;5.40;;;;;;;1.71;100.00;101295.23;106584;1253;60409;-82
2023/03/02 05:58:34;;;;;;;13.90;5.60;;;;;;;1.81;100.00;101295.70;106399;1251;61383;-83
2023/03/02 06:01:25;;;;;;;13.90;5.90;;;;;;;1.78;100.00;101301.37;106476;1251;75694;-91
2023/03/02 06:04:15;;;;;;;17.00;7.20;;;;;;;1.81;100.00;101307.02;106495;1251;69756;-82
2023/03/02 06:07:04;;;;;;;15.50;6.90;;;;;;;1.85;100.00;101311.06;106560;1251;73809;-83
2023/03/02 06:09:53;;;;;;;14.90;6.00;;;;;;;1.88;100.00;101308.80;106478;1251;61179;-91
2023/03/02 06:12:43;;;;;;;14.40;5.60;;;;;;;1.95;100.00;101318.11;106611;1251;61429;-90
2023/03/02 06:15:38;;;;;;;12.40;5.30;;;;;;;2.04;100.00;101318.05;106553;1251;73981;-82
2023/03/02 06:18:28;;;;;;;11.80;4.50;;;;;;;2.16;100.00;101318.09;106550;1252;69104;-83
2023/03/02 06:21:17;;;;;;;12.40;4.60;;;;;;;2.29;100.00;101316.98;106492;1253;73880;-91
2023/03/02 06:24:07;;;;;;;7.80;3.40;;;;;;;2.38;100.00;101321.90;106449;1256;60540;-83
2023/03/02 06:26:56;;;;;;;9.80;4.40;;;;;;;2.47;100.00;101320.95;106508;1253;60920;-92
2023/03/02 06:29:45;;;;;;;11.70;4.60;;;;;;;2.57;100.00;101325.01;106511;1256;73964;-90
2023/03/02 06:32:34;;;;;;;10.20;4.60;;;;;;;2.70;100.00;101327.36;106472;1256;68662;-92
2023/03/02 06:35:23;;;;;;;9.40;4.30;;;;;;;2.74;100.00;101333.96;106492;1251;72132;-91
2023/03/02 06:38:12;;;;;;;7.50;4.00;;;;;;;2.84;100.00;101332.27;106459;1255;60550;-83
2023/03/02 06:41:03;;;;;;;9.60;4.30;;;;;;;2.91;100.00;101332.02;106532;1251;60483;-92
2023/03/02 06:43:52;;;;;;;11.80;4.40;;;;;;;2.99;100.00;101336.97;106468;1254;74103;-82
2023/03/02 06:46:42;;;;;;;14.60;4.70;;;;;;;3.05;100.00;101337.55;106584;1256;69524;-92
2023/03/02 06:49:31;;;;;;;12.70;3.80;;;;;;;3.19;100.00;101335.09;106459;1252;73111;-83
2023/03/02 06:52:21;;;;;;;9.90;4.10;;;;;;;3.31;100.00;101340.08;106469;1253;60749;-90
2023/03/02 06:55:10;;;;;;;11.60;3.70;;;;;;;3.42;100.00;101335.36;106523;1251;61360;-90
2023/03/02 06:58:00;;;;;;;9.20;3.80;;;;;;;3.50;100.00;101338.16;106799;1253;74263;-89
2023/03/02 07:00:49;;;;;;;10.00;4.00;;;;;;;3.58;100.00;101337.36;106449;1256;68570;-91
2023/03/02 07:03:39;;;;;;;9.60;4.10;;;;;;;3.64;100.00;101334.42;106588;1251;72836;-89
2023/03/02 07:06:29;;;;;;;11.90;4.20;;;;;;;3.71;100.00;101336.01;106573;1253;60569;-90
2023/03/02 07:09:18;;;;;;;11.20;4.90;;;;;;;3.79;100.00;101332.73;106522;1252;61015;-89
2023/03/02 07:12:07;;;;;;;11.00;4.60;;;;;;;3.82;100.00;101329.40;106557;1253;71862;-89
2023/03/02 07:14:56;;;;;;;14.20;4.30;;;;;;;3.84;100.00;101331.67;106412;1253;70163;-89
2023/03/02 07:17:46;;;;;;;14.80;5.40;;;;;;;3.89;100.00;101329.92;106626;1251;72998;-90
2023/03/02 07:20:35;;;;;;;10.50;4.90;;;;;;;4.00;100.00;101324.52;106262;1259;59285;-90
2023/03/02 07:23:26;;;;;;;11.40;5.20;;;;;;;4.16;100.00;101321.69;106472;1252;60420;-89
2023/03/02 07:26:15;;;;;;;11.10;5.00;;;;;;;4.23;100.00;101326.86;106406;1252;71745;-90
2023/03/02 07:29:04;;;;;;;9.10;4.30;;;;;;;4.30;100.00;101318.75;106478;1252;69983;-90
2023/03/02 07:31:56;;;;;;;9.30;4.70;;;;;;;4.31;100.00;101313.41;106360;1253;74237;-89
2023/03/02 07:34:45;;;;;;;12.20;4.70;;;;;;;4.40;100.00;101311.20;106414;1253;62149;-90
2023/03/02 07:37:34;;;;;;;9.40;4.50;;;;;;;4.46;100.00;101306.29;106534;1256;61235;-90
2023/03/02 07:40:23;;;;;;;10.10;4.60;;;;;;;4.53;100.00;101300.05;106568;1251;72907;-89
2023/03/02 07:43:12;;;;;;;11.40;4.40;;;;;;;4.57;100.00;101304.50;106501;1256;69394;-89
2023/03/02 07:46:03;;;;;;;7.60;3.50;;;;;;;4.69;100.00;101296.42;106530;1256;72878;-89
2023/03/02 07:48:52;;;;;;;11.70;4.40;;;;;;;4.88;100.00;101296.03;106576;1256;60409;-89
2023/03/02 07:51:42;;;;;;;6.80;3.10;;;;;;;5.01;100.00;101294.91;106515;1251;60736;-89
2023/03/02 07:54:32;;;;;;;9.50;3.70;;;;;;;5.21;100.00;101295.16;106548;1253;73915;-90
2023/03/02 07:57:21;;;;;;;7.00;3.20;;;;;;;5.36;100.00;101288.92;106470;1251;67882;-90
2023/03/02 08:00:10;;;;;;;5.60;2.90;;;;;;;5.46;100.00;101285.48;106442;1253;73892;-89
2023/03/02 08:03:00;;;;;;;8.60;3.00;;;;;;;5.46;100.00;101281.02;106516;1255;60324;-90
2023/03/02 08:05:51;;;;;;;6.00;3.10;;;;;;;5.55;100.00;101280.00;106557;1251;60441;-89
2023/03/02 08:08:40;;;;;;;6.50;3.10;;;;;;;5.65;100.00;101281.02;106524;1256;74521;-89
2023/03/02 08:11:30;;;;;;;9.90;3.70;;;;;;;5.71;100.00;101283.08;106712;1251;67759;-89
2023/03/02 08:14:19;;;;;;;4.80;2.40;;;;;;;5.85;100.00;101288.13;106671;1251;71458;-88
2023/03/02 08:17:08;;;;;;;4.20;2.40;;;;;;;5.92;100.00;101282.11;106605;1253;60456;-90
2023/03/02 08:19:58;;;;;;;5.50;1.80;;;;;;;5.95;99.56;101288.98;106629;1251;60843;-89
2023/03/02 08:22:47;;;;;;;7.20;2.20;;;;;;;5.89;98.88;101288.15;106616;1256;74771;-88
2023/03/02 08:25:41;;;;;;;4.20;2.30;;;;;;;5.97;100.00;101285.53;106592;1253;68169;-89
2023/03/02 08:28:30;;;;;;;7.60;2.20;;;;;;;6.10;99.95;101288.91;106457;1254;73095;-90
2023/03/02 08:31:19;;;;;;;5.60;2.40;;;;;;;6.02;100.00;101286.02;106538;1253;60862;-89
2023/03/02 08:34:08;;;;;;;3.00;1.60;;;;;;;6.06;100.00;101293.64;106536;1253;60307;-89
2023/03/02 08:36:57;;;;;;;3.60;2.50;;;;;;;6.15;100.00;101293.08;106617;1253;74604;-89
2023/03/02 08:39:47;;;;;;;9.30;2.70;;;;;;;6.30;99.97;101292.27;106765;1253;69309;-90
2023/03/02 08:42:37;;;;;;;7.10;2.30;;;;;;;6.40;98.11;101293.25;106739;1253;71663;-89
2023/03/02 08:45:27;;;;;;;5.70;2.00;;;;;;;6.44;96.67;101290.33;106677;1251;60768;-90
2023/03/02 08:48:16;;;;;;;5.70;1.90;;;;;;;6.44;95.39;101292.06;106373;1253;61382;-90
2023/03/02 08:51:12;;;;;;;5.60;2.00;;;;;;;6.46;91.90;101289.67;106618;1251;71733;-89
2023/03/02 08:54:01;;;;;;;5.50;2.00;;;;;;;6.45;93.41;101290.61;106471;1253;67556;-90
2023/03/02 08:56:51;;;;;;;7.50;2.40;;;;;;;6.56;93.67;101288.23;106589;1253;71582;-91
2023/03/02 08:59:40;;;;;;;7.80;2.20;;;;;;;6.52;93.03;101289.92;106647;1251;60415;-90
2023/03/02 09:02:29;;;;;;;5.80;2.30;;;;;;;6.46;92.37;101284.58;106534;1251;60754;-90
2023/03/02 09:05:18;;;;;;;6.30;2.70;;;;;;;6.48;95.74;101285.55;106542;1251;74756;-91
2023/03/02 09:08:09;;;;;;;4.80;2.10;;;;;;;6.54;95.55;101282.16;106647;1253;67915;-90
2023/03/02 09:11:00;;;;;;;4.80;2.20;;;;;;;6.66;92.88;101283.98;106577;1251;73586;-91
2023/03/02 09:13:49;;;;;;;4.90;2.00;;;;;;;6.65;93.08;101278.27;106567;1254;60425;-91
2023/03/02 09:16:39;;;;;;;5.80;2.50;;;;;;;6.70;92.01;101275.69;106466;1251;60736;-90
2023/03/02 09:19:28;;;;;;;7.30;2.20;;;;;;;6.77;94.34;101272.16;106570;1256;74858;-89
2023/03/02 09:22:18;;;;;;;5.30;2.10;;;;;;;6.88;91.91;101274.72;106456;1254;70136;-90
2023/03/02 09:25:08;;;;;;;5.50;2.60;;;;;;;6.84;92.06;101273.36;106631;1254;73382;-82
2023/03/02 09:27:57;;;;;;;5.10;2.40;;;;;;;6.91;95.40;101275.75;106551;1253;61008;-80
2023/03/02 09:30:56;;;;;;;7.20;2.60;;;;;;;7.00;93.06;101279.61;106736;1251;60469;-81
2023/03/02 09:33:46;;;;;;;6.90;3.00;;;;;;;7.05;92.64;101281.09;106647;1256;73994;-81
2023/03/02 09:36:36;;;;;;;5.50;2.00;;;;;;;7.09;92.60;101277.91;106667;1251;69896;-81
2023/03/02 09:39:26;;;;;;;5.10;2.30;;;;;;;7.08;94.64;101279.14;107014;1253;74085;-82
2023/03/02 09:42:30;;;;;;;5.50;2.50;;;;;;;7.16;95.72;101277.64;106859;1252;60806;-81
2023/03/02 09:46:02;;;;;;;5.80;2.50;;;;;;;7.33;94.40;101277.05;106643;1253;60978;-81
2023/03/02 09:48:52;;;;;;;4.40;1.80;;;;;;;7.39;94.33;101273.04;106680;1253;74152;-82
2023/03/02 09:51:48;;;;;;;5.20;2.00;;;;;;;7.44;93.71;101268.83;106850;1256;68891;-81
2023/03/02 09:54:36;;;;;;;6.10;2.20;;;;;;;7.52;90.82;101271.39;108294;1253;72994;-81
2023/03/02 09:57:30;;;;;;;4.70;1.90;;;;;;;7.52;89.86;101267.35;106528;1252;60540;-81
2023/03/02 10:00:28;;;;;;;6.90;2.40;;;;;;;7.53;88.79;101271.57;106477;1254;60300;-81
2023/03/02 10:03:22;;;;;;;4.40;2.50;;;;;;;7.61;86.15;101264.33;106466;1251;74006;-81
2023/03/02 10:06:11;;;;;;;6.40;2.80;;;;;;;7.72;86.66;101263.70;106465;1251;69647;-81
2023/03/02 10:09:01;;;;;;;3.80;2.20;;;;;;;7.80;88.08;101262.67;106440;1253;72592;-82
2023/03/02 10:11:55;;;;;;;6.20;2.60;;;;;;;7.86;85.80;101259.46;106614;1253;60470;-81
2023/03/02 10:15:02;;;;;;;6.30;2.70;;;;;;;7.80;84.51;101258.79;106565;1254;60678;-81
2023/03/02 10:17:55;;;;;;;8.20;2.20;;;;;;;7.91;83.71;101254.87;106772;1253;75462;-82
2023/03/02 10:20:54;;;;;;;5.80;2.20;;;;;;;7.87;84.67;101247.34;106538;1253;68894;-83
2023/03/02 10:24:04;;;;;;;5.50;2.20;;;;;;;7.86;84.92;101252.27;106639;1256;72556;-83
2023/03/02 10:26:54;;;;;;;6.30;2.50;;;;;;;7.93;80.95;101255.30;106621;1253;60481;-83
2023/03/02 10:29:54;;;;;;;9.70;4.50;;;;;;;7.86;80.69;101252.59;106704;1251;60575;-82
2023/03/02 10:32:48;;;;;;;5.60;2.10;;;;;;;7.84;79.91;101251.37;106597;1256;73763;-83
2023/03/02 10:35:38;;;;;;;6.00;1.90;;;;;;;7.85;79.90;101248.92;106552;1256;67552;-82
2023/03/02 10:38:27;;;;;;;3.10;2.00;;;;;;;7.89;77.97;101244.72;106556;1253;73223;-91
2023/03/02 10:41:35;;;;;;;3.10;1.80;;;;;;;7.90;78.42;101247.14;106627;1256;60497;-83
2023/03/02 10:44:27;;;;;;;4.80;1.70;;;;;;;8.03;74.72;101246.13;106638;1256;62175;-83
2023/03/02 10:47:26;;;;;;;3.10;2.10;;;;;;;8.05;73.56;101246.66;106547;1255;74616;-82
2023/03/02 10:50:22;;;;;;;3.60;1.50;;;;;;;8.03;73.62;101240.26;106941;1256;69922;-82
2023/03/02 10:53:16;;;;;;;7.40;2.10;;;;;;;8.00;72.40;101241.83;106554;1256;73176;-90
2023/03/02 10:56:16;;;;;;;5.00;1.70;;;;;;;8.00;73.54;101241.41;106452;1256;60539;-90
2023/03/02 10:59:30;;;;;;;4.50;1.90;;;;;;;8.07;73.41;101234.73;106565;1254;60501;-91
2023/03/02 11:02:24;;;;;;;7.20;2.30;;;;;;;8.10;68.94;101236.08;106530;1255;75059;-91
2023/03/02 11:05:27;;;;;;;5.60;2.20;;;;;;;8.05;70.87;101235.99;106542;1251;69538;-91
2023/03/02 11:08:18;;;;;;;5.50;2.20;;;;;;;8.07;73.07;101233.80;106493;1251;73007;-90
2023/03/02 11:11:22;;;;;;;6.10;2.20;;;;;;;8.12;72.24;101232.47;106531;1253;60510;-90
2023/03/02 11:14:15;;;;;;;4.10;1.50;;;;;;;8.21;70.30;101232.52;106587;1251;61273;-89
2023/03/02 11:17:26;;;;;;;4.20;1.80;;;;;;;8.25;70.22;101237.17;106673;1257;72542;-90
2023/03/02 11:20:28;;;;;;;5.40;2.30;;;;;;;8.30;70.78;101236.41;106590;1252;68556;-90
2023/03/02 11:23:22;;;;;;;5.20;2.60;;;;;;;8.32;67.75;101226.73;106572;1254;70364;-90
2023/03/02 11:26:20;;;;;;;5.30;1.90;;;;;;;8.33;66.29;101230.41;106486;1254;60635;-90
2023/03/02 11:29:30;;;;;;;6.90;2.20;;;;;;;8.31;64.52;101224.11;106555;1254;60763;-90
2023/03/02 11:32:27;;;;;;;6.00;2.50;;;;;;;8.34;68.37;101222.30;106467;1256;74223;-91
2023/03/02 11:35:41;;;;;;;9.00;2.50;;;;;;;8.26;68.82;101213.88;106399;1254;69119;-92
2023/03/02 11:38:49;;;;;;;10.00;3.20;;;;;;;8.23;69.75;101209.73;106734;1253;73632;-91
2023/03/02 11:41:40;;;;;;;5.10;2.30;;;;;;;8.27;68.83;101206.79;106484;1251;60859;-91
2023/03/02 11:44:29;;;;;;;11.20;4.80;;;;;;;8.23;70.51;101204.03;106515;1253;60851;-91
2023/03/02 11:47:19;;;;;;;6.70;3.30;;;;;;;8.16;74.71;101199.45;106527;1256;75041;-91
2023/03/02 11:50:10;;;;;;;8.10;2.70;;;;;;;8.20;75.24;101205.29;106627;1256;68851;-90
2023/03/02 11:53:02;;;;;;;36.00;16.30;;;;;;;8.26;72.35;101195.80;106533;1257;73891;-91
2023/03/02 11:55:51;;;;;;;8.00;4.10;;;;;;;8.38;72.46;101195.96;106560;1257;60539;-90
2023/03/02 11:58:42;;;;;;;7.80;2.60;;;;;;;8.48;67.79;101194.95;106379;1252;60678;-90
2023/03/02 12:01:33;;;;;;;6.00;2.50;;;;;;;8.38;67.42;101194.51;106394;1253;74287;-90
2023/03/02 12:04:27;;;;;;;4.50;2.40;;;;;;;8.35;69.05;101187.52;106514;1258;69689;-90
2023/03/02 12:07:24;;;;;;;3.50;2.00;;;;;;;8.37;69.72;101192.23;106629;1257;72667;-89
2023/03/02 12:10:27;;;;;;;5.90;2.30;;;;;;;8.35;68.54;101188.55;106498;1255;60354;-90
2023/03/02 12:13:22;;;;;;;7.20;3.00;;;;;;;8.35;69.34;101186.52;106456;1266;60424;-83
2023/03/02 12:16:37;;;;;;;5.50;3.00;;;;;;;8.27;69.98;101186.39;106574;1253;72538;-83
2023/03/02 12:19:28;;;;;;;7.50;2.70;;;;;;;8.24;72.01;101186.18;106521;1253;68012;-83
2023/03/02 12:22:28;;;;;;;3.30;2.00;;;;;;;8.26;70.65;101185.29;106595;1256;71400;-82
2023/03/02 12:25:17;;;;;;;3.90;2.00;;;;;;;8.28;68.67;101178.69;106444;1257;60476;-83
2023/03/02 12:28:29;;;;;;;7.50;2.20;;;;;;;8.27;69.07;101181.45;106683;1256;60319;-81
2023/03/02 12:31:19;;;;;;;4.40;2.10;;;;;;;8.29;66.73;101182.63;106460;1256;74264;-82
2023/03/02 12:34:38;;;;;;;6.50;1.90;;;;;;;8.28;66.05;101180.08;106626;1255;69665;-83
2023/03/02 12:37:30;;;;;;;4.10;1.70;;;;;;;8.30;67.57;101177.48;106527;1256;71385;-83
2023/03/02 12:40:41;;;;;;;2.60;1.60;;;;;;;8.38;66.39;101172.21;106599;1257;60478;-83
2023/03/02 12:43:32;;;;;;;6.80;2.80;;;;;;;8.38;67.32;101171.80;106478;1254;60428;-83
2023/03/02 12:46:25;;;;;;;4.90;1.90;;;;;;;8.38;67.59;101165.52;106448;1256;74549;-83
2023/03/02 12:49:38;;;;;;;5.60;2.10;;;;;;;8.35;64.72;101165.52;106677;1257;68628;-83
2023/03/02 12:52:28;;;;;;;;;;;;;;;8.27;68.76;101164.35;106424;1254;73844;-82
2023/03/02 12:55:19;;;;;;;4.50;2.60;;;;;;;8.26;69.91;101164.49;106596;1254;61032;-82
2023/03/02 12:58:24;;;;;;;6.20;2.10;;;;;;;8.19;69.14;101158.13;106511;1257;60370;-82
2023/03/02 13:01:19;;;;;;;3.50;1.70;;;;;;;8.18;71.11;101152.29;106489;1256;74720;-82
2023/03/02 13:04:21;;;;;;;4.60;2.30;;;;;;;8.19;70.54;101149.63;106603;1256;69315;-82
2023/03/02 13:07:18;;;;;;;2.30;1.20;;;;;;;8.21;70.69;101152.32;106471;1255;159636;-82
2023/03/02 13:10:20;;;;;;;3.80;2.00;;;;;;;8.18;67.24;101148.57;106804;1257;60434;-90